createdAt,value
2018-12-22T00:01:59.980Z,0.40
2018-12-22T00:04:22.234Z,0.40
2018-12-22T00:06:44.531Z,0.30
2018-12-22T00:09:06.785Z,0.30
2018-12-22T00:11:29.047Z,0.30
2018-12-22T00:13:51.277Z,0.40
2018-12-22T00:16:13.547Z,0.40
2018-12-22T00:18:36.303Z,0.50
2018-12-22T00:20:58.535Z,0.50
2018-12-22T00:23:20.751Z,0.30
2018-12-22T00:25:43.051Z,0.30
2018-12-22T00:28:05.345Z,0.30
2018-12-22T00:30:27.632Z,0.40
2018-12-22T00:32:49.879Z,0.47
2018-12-22T00:35:12.176Z,0.40
2018-12-22T00:37:34.459Z,0.33
2018-12-22T00:39:56.727Z,0.40
2018-12-22T00:42:18.999Z,0.43
2018-12-22T00:44:41.292Z,0.30
2018-12-22T00:47:03.639Z,0.50
2018-12-22T00:49:25.919Z,0.40
2018-12-22T00:51:48.167Z,0.47
2018-12-22T00:54:10.485Z,0.53
2018-12-22T00:56:32.747Z,0.50
2018-12-22T00:58:55.014Z,0.40
2018-12-22T01:01:17.293Z,0.50
2018-12-22T01:03:39.588Z,0.60
2018-12-22T01:06:01.826Z,0.60
2018-12-22T01:08:24.102Z,0.50
2018-12-22T01:10:46.407Z,0.60
2018-12-22T01:13:08.679Z,0.70
2018-12-22T01:15:31.088Z,0.70
2018-12-22T01:17:53.355Z,0.50
2018-12-22T01:20:15.664Z,0.60
2018-12-22T01:22:37.895Z,0.60
2018-12-22T01:25:00.163Z,0.70
2018-12-22T01:27:22.471Z,0.50
2018-12-22T01:29:44.734Z,0.57
2018-12-22T01:32:07.780Z,0.70
2018-12-22T01:34:30.035Z,0.60
2018-12-22T01:36:52.555Z,0.70
2018-12-22T01:39:14.872Z,0.47
2018-12-22T01:41:37.151Z,0.63
2018-12-22T01:43:59.491Z,0.60
2018-12-22T01:46:21.711Z,0.50
2018-12-22T01:48:43.936Z,0.60
2018-12-22T01:51:06.196Z,0.60
2018-12-22T01:53:28.434Z,0.50
2018-12-22T01:55:50.699Z,0.50
2018-12-22T01:58:12.935Z,0.50
2018-12-22T02:00:35.227Z,0.50
2018-12-22T02:02:57.516Z,0.40
2018-12-22T02:05:19.767Z,0.50
2018-12-22T02:07:42.035Z,0.50
2018-12-22T02:10:04.569Z,0.60
2018-12-22T02:12:26.798Z,0.60
2018-12-22T02:14:49.058Z,0.60
2018-12-22T02:17:11.287Z,0.40
2018-12-22T02:19:33.567Z,0.50
2018-12-22T02:21:55.835Z,0.50
2018-12-22T02:24:18.083Z,0.70
2018-12-22T02:26:40.380Z,0.60
2018-12-22T02:29:02.627Z,0.80
2018-12-22T02:31:24.911Z,0.67
2018-12-22T02:33:47.139Z,0.60
2018-12-22T02:36:09.393Z,0.50
2018-12-22T02:38:31.736Z,0.70
2018-12-22T02:40:53.973Z,0.70
2018-12-22T02:43:16.211Z,0.60
2018-12-22T02:45:38.491Z,0.60
2018-12-22T02:48:00.740Z,0.60
2018-12-22T02:50:22.998Z,0.60
2018-12-22T02:52:45.241Z,0.63
2018-12-22T02:55:07.741Z,0.50
2018-12-22T02:57:29.972Z,0.60
2018-12-22T02:59:52.195Z,0.50
2018-12-22T03:02:14.450Z,0.60
2018-12-22T03:04:37.036Z,0.50
2018-12-22T03:06:59.253Z,0.50
2018-12-22T03:09:21.508Z,0.50
2018-12-22T03:11:43.707Z,0.50
2018-12-22T03:14:05.979Z,0.60
2018-12-22T03:16:28.258Z,0.50
2018-12-22T03:18:50.613Z,0.60
2018-12-22T03:21:12.751Z,0.50
2018-12-22T03:23:35.064Z,0.60
2018-12-22T03:25:57.338Z,0.60
2018-12-22T03:28:19.591Z,0.63
2018-12-22T03:30:41.824Z,0.60
2018-12-22T03:33:04.126Z,0.50
2018-12-22T03:35:26.374Z,0.60
2018-12-22T03:37:48.606Z,0.50
2018-12-22T03:40:10.875Z,0.40
2018-12-22T03:42:33.076Z,0.57
2018-12-22T03:44:55.611Z,0.50
2018-12-22T03:47:17.827Z,0.50
2018-12-22T03:49:40.099Z,0.40
2018-12-22T03:52:02.352Z,0.60
2018-12-22T03:54:24.656Z,0.60
2018-12-22T03:56:46.890Z,0.50
2018-12-22T03:59:09.126Z,0.60
2018-12-22T04:01:31.368Z,0.50
2018-12-22T04:03:53.596Z,0.40
2018-12-22T04:06:15.839Z,0.53
2018-12-22T04:08:38.096Z,0.33
2018-12-22T04:11:00.345Z,0.40
2018-12-22T04:13:22.721Z,0.50
2018-12-22T04:15:44.850Z,0.50
2018-12-22T04:18:07.093Z,0.47
2018-12-22T04:20:29.327Z,0.40
2018-12-22T04:22:51.554Z,0.40
2018-12-22T04:25:13.771Z,0.40
2018-12-22T04:27:36.191Z,0.40
2018-12-22T04:29:58.447Z,0.40
2018-12-22T04:32:20.656Z,0.40
2018-12-22T04:34:42.909Z,0.40
2018-12-22T04:37:05.172Z,0.40
2018-12-22T04:39:27.411Z,0.43
2018-12-22T04:41:49.676Z,0.40
2018-12-22T04:44:11.911Z,0.50
2018-12-22T04:46:34.187Z,0.40
2018-12-22T04:48:56.395Z,0.40
2018-12-22T04:51:18.639Z,0.40
2018-12-22T04:53:40.884Z,0.33
2018-12-22T04:56:03.123Z,0.90
2018-12-22T04:58:25.371Z,0.40
2018-12-22T05:00:47.628Z,0.30
2018-12-22T05:03:09.853Z,0.30
2018-12-22T05:05:32.114Z,0.30
2018-12-22T05:07:54.398Z,0.40
2018-12-22T05:10:16.663Z,0.40
2018-12-22T05:12:38.934Z,0.30
2018-12-22T05:15:01.207Z,0.40
2018-12-22T05:17:23.468Z,0.40
2018-12-22T05:19:45.698Z,0.40
2018-12-22T05:22:07.986Z,0.30
2018-12-22T05:24:30.263Z,0.30
2018-12-22T05:26:52.505Z,0.40
2018-12-22T05:29:14.757Z,0.40
2018-12-22T05:31:37.012Z,0.40
2018-12-22T05:33:59.313Z,0.40
2018-12-22T05:36:21.548Z,0.30
2018-12-22T05:38:43.822Z,0.30
2018-12-22T05:41:06.082Z,0.40
2018-12-22T05:43:28.416Z,0.40
2018-12-22T05:45:50.680Z,0.33
2018-12-22T05:48:12.919Z,0.40
2018-12-22T05:50:35.181Z,0.30
2018-12-22T05:52:57.422Z,0.30
2018-12-22T05:55:19.679Z,0.33
2018-12-22T05:57:41.887Z,0.30
2018-12-22T06:00:05.398Z,0.40
2018-12-22T06:02:27.627Z,0.30
2018-12-22T06:04:49.913Z,0.40
2018-12-22T06:07:12.144Z,0.40
2018-12-22T06:09:34.414Z,0.30
2018-12-22T06:11:56.627Z,0.30
2018-12-22T06:14:18.923Z,0.30
2018-12-22T06:16:41.184Z,0.40
2018-12-22T06:19:03.435Z,0.37
2018-12-22T06:21:25.671Z,0.40
2018-12-22T06:23:47.924Z,0.50
2018-12-22T06:26:10.135Z,0.40
2018-12-22T06:28:32.430Z,0.30
2018-12-22T06:30:54.713Z,0.30
2018-12-22T06:33:16.888Z,0.40
2018-12-22T06:35:39.152Z,0.53
2018-12-22T06:38:01.437Z,0.40
2018-12-22T06:40:23.679Z,0.50
2018-12-22T06:42:45.917Z,0.37
2018-12-22T06:45:08.216Z,0.40
2018-12-22T06:47:30.453Z,0.40
2018-12-22T06:49:52.684Z,0.30
2018-12-22T06:52:14.935Z,0.33
2018-12-22T06:54:37.211Z,0.30
2018-12-22T06:56:59.466Z,0.30
2018-12-22T06:59:21.727Z,0.40
2018-12-22T07:01:43.993Z,0.40
2018-12-22T07:04:06.312Z,0.43
2018-12-22T07:06:28.569Z,0.40
2018-12-22T07:08:50.876Z,0.40
2018-12-22T07:11:13.187Z,0.40
2018-12-22T07:13:35.375Z,0.40
2018-12-22T07:15:57.654Z,0.33
2018-12-22T07:18:19.915Z,0.37
2018-12-22T07:20:42.123Z,0.40
2018-12-22T07:23:04.376Z,0.40
2018-12-22T07:25:26.672Z,0.30
2018-12-22T07:27:48.910Z,0.40
2018-12-22T07:30:11.143Z,0.40
2018-12-22T07:32:33.387Z,0.40
2018-12-22T07:34:55.639Z,0.60
2018-12-22T07:37:17.933Z,0.57
2018-12-22T07:39:40.164Z,0.40
2018-12-22T07:42:02.462Z,0.40
2018-12-22T07:44:24.711Z,0.50
2018-12-22T07:46:46.970Z,0.40
2018-12-22T07:49:09.226Z,0.50
2018-12-22T07:51:31.459Z,0.60
2018-12-22T07:53:53.739Z,0.50
2018-12-22T07:56:15.938Z,0.50
2018-12-22T07:58:38.165Z,0.40
2018-12-22T08:01:00.424Z,0.50
2018-12-22T08:03:22.675Z,0.40
2018-12-22T08:05:44.927Z,0.60
2018-12-22T08:08:07.155Z,0.60
2018-12-22T08:10:29.422Z,0.50
2018-12-22T08:12:51.675Z,0.40
2018-12-22T08:15:14.029Z,0.40
2018-12-22T08:17:36.276Z,0.40
2018-12-22T08:19:58.582Z,0.67
2018-12-22T08:22:20.831Z,0.60
2018-12-22T08:24:43.055Z,0.50
2018-12-22T08:27:05.312Z,0.40
2018-12-22T08:29:27.822Z,0.50
2018-12-22T08:31:50.064Z,0.53
2018-12-22T08:34:12.297Z,0.40
2018-12-22T08:36:34.624Z,0.30
2018-12-22T08:38:56.862Z,0.40
2018-12-22T08:41:19.149Z,0.40
2018-12-22T08:43:41.397Z,0.30
2018-12-22T08:46:03.672Z,0.40
2018-12-22T08:48:25.959Z,0.50
2018-12-22T08:50:48.227Z,0.30
2018-12-22T08:53:10.480Z,0.40
2018-12-22T08:55:32.717Z,0.40
2018-12-22T08:57:54.947Z,0.50
2018-12-22T09:00:17.191Z,0.50
2018-12-22T09:02:39.516Z,0.40
2018-12-22T09:05:01.737Z,0.43
2018-12-22T09:07:23.960Z,0.50
2018-12-22T09:09:46.201Z,0.40
2018-12-22T09:12:08.435Z,0.40
2018-12-22T09:14:30.667Z,0.40
2018-12-22T09:16:52.946Z,0.40
2018-12-22T09:19:15.199Z,0.40
2018-12-22T09:21:37.412Z,0.47
2018-12-22T09:23:59.679Z,0.40
2018-12-22T09:26:21.955Z,0.50
2018-12-22T09:28:44.179Z,0.53
2018-12-22T09:31:06.394Z,0.60
2018-12-22T09:33:28.665Z,0.40
2018-12-22T09:35:50.919Z,0.50
2018-12-22T09:38:13.163Z,0.57
2018-12-22T09:40:35.416Z,0.50
2018-12-22T09:42:57.639Z,0.60
2018-12-22T09:48:08.023Z,0.33
2018-12-22T09:50:30.294Z,0.50
2018-12-22T09:52:52.511Z,0.50
2018-12-22T09:55:14.765Z,0.60
2018-12-22T09:57:36.999Z,0.60
2018-12-22T09:59:59.257Z,0.60
2018-12-22T10:02:21.556Z,0.60
2018-12-22T10:04:43.853Z,0.60
2018-12-22T10:07:06.087Z,0.80
2018-12-22T10:09:28.378Z,0.60
2018-12-22T10:11:50.607Z,0.70
2018-12-22T10:14:12.859Z,0.50
2018-12-22T10:16:35.095Z,0.80
2018-12-22T10:18:57.363Z,0.57
2018-12-22T10:21:19.633Z,0.70
2018-12-22T10:23:41.876Z,0.73
2018-12-22T10:26:04.143Z,0.67
2018-12-22T10:28:26.353Z,0.50
2018-12-22T10:30:48.623Z,0.70
2018-12-22T10:33:10.874Z,0.60
2018-12-22T10:35:33.111Z,0.70
2018-12-22T10:37:55.373Z,0.57
2018-12-22T10:40:17.604Z,0.63
2018-12-22T10:42:39.887Z,0.70
2018-12-22T10:45:02.107Z,1.30
2018-12-22T10:47:24.326Z,0.50
2018-12-22T10:49:46.558Z,0.70
2018-12-22T10:52:08.831Z,0.60
2018-12-22T11:01:26.538Z,0.67
2018-12-22T11:03:44.827Z,0.60
2018-12-22T11:06:07.047Z,0.63
2018-12-22T11:08:29.321Z,0.53
2018-12-22T11:10:51.583Z,0.60
2018-12-22T11:13:13.795Z,0.77
2018-12-22T11:15:36.039Z,0.93
2018-12-22T11:17:58.373Z,0.70
2018-12-22T11:20:20.595Z,0.83
2018-12-22T11:22:42.856Z,0.70
2018-12-22T11:25:09.878Z,0.77
2018-12-22T11:27:32.105Z,0.60
2018-12-22T11:29:54.378Z,0.70
2018-12-22T11:32:16.583Z,0.70
2018-12-22T11:34:38.880Z,0.60
2018-12-22T11:37:01.119Z,0.70
2018-12-22T11:39:23.390Z,0.97
2018-12-22T11:41:45.627Z,0.80
2018-12-22T11:44:07.887Z,0.70
2018-12-22T11:46:31.327Z,0.80
2018-12-22T11:49:31.074Z,0.83
2018-12-22T11:51:53.318Z,0.63
2018-12-22T11:54:15.572Z,0.80
2018-12-22T11:56:37.831Z,0.70
2018-12-22T11:59:00.071Z,0.90
2018-12-22T12:01:22.319Z,1.00
2018-12-22T12:03:44.609Z,0.80
2018-12-22T12:06:06.875Z,0.80
2018-12-22T12:08:29.111Z,0.90
2018-12-22T12:10:51.331Z,0.70
2018-12-22T12:13:13.583Z,1.10
2018-12-22T12:15:46.715Z,1.00
2018-12-22T12:19:21.450Z,1.10
2018-12-22T12:21:43.727Z,0.83
2018-12-22T12:24:05.968Z,1.00
2018-12-22T12:26:28.186Z,1.10
2018-12-22T12:28:50.462Z,1.10
2018-12-22T12:31:12.708Z,1.00
2018-12-22T12:33:34.966Z,0.83
2018-12-22T12:35:57.230Z,0.83
2018-12-22T12:38:19.546Z,1.10
2018-12-22T12:40:41.797Z,0.90
2018-12-22T12:43:04.044Z,0.87
2018-12-22T12:45:26.298Z,0.90
2018-12-22T12:47:48.547Z,1.03
2018-12-22T12:50:12.438Z,1.17
2018-12-22T12:52:34.676Z,1.00
2018-12-22T12:54:56.920Z,1.20
2018-12-22T12:57:19.222Z,0.90
2018-12-22T12:59:41.498Z,0.90
2018-12-22T13:02:05.559Z,1.03
2018-12-22T13:04:27.811Z,1.10
2018-12-22T13:06:50.107Z,1.17
2018-12-22T13:09:12.377Z,0.93
2018-12-22T13:11:34.675Z,1.00
2018-12-22T13:14:01.046Z,0.80
2018-12-22T13:16:23.363Z,1.07
2018-12-22T13:18:45.609Z,0.90
2018-12-22T13:21:08.575Z,1.30
2018-12-22T13:23:30.913Z,1.10
2018-12-22T13:25:53.214Z,1.17
2018-12-22T13:28:15.443Z,1.00
2018-12-22T13:30:37.686Z,1.23
2018-12-22T13:33:00.188Z,1.03
2018-12-22T13:35:22.231Z,0.83
2018-12-22T13:37:44.513Z,1.10
2018-12-22T13:40:08.319Z,1.17
2018-12-22T13:42:30.570Z,1.30
2018-12-22T13:44:52.806Z,0.90
2018-12-22T13:47:15.047Z,1.00
2018-12-22T13:49:37.447Z,1.30
2018-12-22T13:51:59.703Z,0.93
2018-12-22T13:54:24.087Z,1.50
2018-12-22T13:56:46.302Z,1.30
2018-12-22T13:59:08.564Z,1.00
2018-12-22T14:01:33.746Z,1.13
2018-12-22T14:03:55.991Z,1.17
2018-12-22T14:06:24.468Z,1.00
2018-12-22T14:08:46.670Z,1.30
2018-12-22T14:11:08.890Z,1.33
2018-12-22T14:13:31.182Z,0.90
2018-12-22T14:15:57.099Z,1.10
2018-12-22T14:18:23.534Z,1.10
2018-12-22T14:20:45.753Z,1.07
2018-12-22T14:23:08.011Z,1.57
2018-12-22T14:25:30.465Z,1.27
2018-12-22T14:27:52.727Z,1.43
2018-12-22T14:30:14.974Z,0.93
2018-12-22T14:32:37.241Z,1.33
2018-12-22T14:35:07.027Z,1.10
2018-12-22T14:37:29.310Z,1.20
2018-12-22T14:39:51.534Z,1.27
2018-12-22T14:42:13.785Z,1.17
2018-12-22T14:44:36.051Z,1.70
2018-12-22T14:46:58.341Z,1.37
2018-12-22T14:49:20.594Z,1.10
2018-12-22T14:51:42.860Z,1.27
2018-12-22T14:54:05.067Z,1.00
2018-12-22T14:56:35.286Z,1.20
2018-12-22T14:58:57.576Z,1.30
2018-12-22T15:01:19.799Z,0.90
2018-12-22T15:03:42.034Z,1.00
2018-12-22T15:06:04.315Z,1.17
2018-12-22T15:08:26.571Z,1.07
2018-12-22T15:10:48.836Z,0.87
2018-12-22T15:13:11.075Z,1.10
2018-12-22T15:15:33.324Z,0.90
2018-12-22T15:17:55.598Z,0.87
2018-12-22T15:20:19.667Z,0.97
2018-12-22T15:22:42.008Z,1.27
2018-12-22T15:25:05.111Z,1.33
2018-12-22T15:27:27.346Z,1.03
2018-12-22T15:29:49.598Z,1.27
2018-12-22T15:32:11.836Z,1.20
2018-12-22T15:34:34.084Z,0.97
2018-12-22T15:36:56.338Z,1.13
2018-12-22T15:39:18.592Z,1.00
2018-12-22T15:41:40.857Z,1.00
2018-12-22T15:44:03.196Z,1.10
2018-12-22T15:46:25.464Z,1.13
2018-12-22T15:48:47.788Z,1.03
2018-12-22T15:51:10.053Z,1.20
2018-12-22T15:53:32.318Z,1.13
2018-12-22T15:55:54.685Z,1.00
2018-12-22T15:58:16.923Z,1.10
2018-12-22T16:00:39.189Z,1.03
2018-12-22T16:03:01.460Z,1.10
2018-12-22T16:05:23.722Z,1.43
2018-12-22T16:07:45.974Z,1.00
2018-12-22T16:10:10.399Z,0.97
2018-12-22T16:12:32.675Z,1.30
2018-12-22T16:14:55.082Z,1.30
2018-12-22T16:17:17.371Z,1.33
2018-12-22T16:19:39.643Z,1.40
2018-12-22T16:22:01.990Z,1.37
2018-12-22T16:24:24.639Z,1.90
2018-12-22T16:26:46.956Z,1.67
2018-12-22T16:29:11.852Z,1.30
2018-12-22T16:31:34.100Z,1.40
2018-12-22T16:33:56.420Z,1.67
2018-12-22T16:36:18.825Z,1.90
2018-12-22T16:38:41.073Z,1.30
2018-12-22T16:41:03.446Z,2.23
2018-12-22T16:43:25.736Z,1.70
2018-12-22T16:45:49.950Z,1.73
2018-12-22T16:48:12.288Z,1.57
2018-12-22T16:50:36.551Z,1.90
2018-12-22T16:52:58.820Z,1.90
2018-12-22T16:55:21.103Z,1.67
2018-12-22T16:57:51.780Z,1.83
2018-12-22T17:00:18.490Z,2.63
2018-12-22T17:02:54.580Z,2.10
2018-12-22T17:05:16.912Z,2.37
2018-12-22T17:07:39.207Z,1.80
2018-12-22T17:10:01.443Z,1.90
2018-12-22T17:12:23.723Z,1.60
2018-12-22T17:14:46.124Z,1.80
2018-12-22T17:17:08.464Z,1.40
2018-12-22T17:19:30.735Z,1.50
2018-12-22T17:22:06.343Z,1.20
2018-12-22T17:24:34.260Z,1.60
2018-12-22T17:26:58.544Z,1.00
2018-12-22T17:29:18.767Z,1.00
2018-12-22T17:31:42.087Z,0.93
2018-12-22T17:34:04.404Z,0.90
2018-12-22T17:36:26.684Z,0.90
2018-12-22T17:38:48.959Z,1.00
2018-12-22T17:41:11.248Z,1.07
2018-12-22T17:43:33.751Z,0.80
2018-12-22T17:45:56.042Z,0.80
2018-12-22T17:48:18.303Z,1.17
2018-12-22T17:50:40.546Z,1.00
2018-12-22T17:53:02.932Z,1.20
2018-12-22T17:55:25.255Z,1.30
2018-12-22T17:57:47.551Z,1.20
2018-12-22T18:00:10.106Z,1.47
2018-12-22T18:02:32.402Z,1.70
2018-12-22T18:04:54.642Z,1.57
2018-12-22T18:07:16.948Z,1.40
2018-12-22T18:09:39.202Z,1.33
2018-12-22T18:12:01.438Z,1.47
2018-12-22T18:14:23.719Z,1.80
2018-12-22T18:16:46.043Z,1.60
2018-12-22T18:19:08.316Z,1.80
2018-12-22T18:21:30.617Z,1.50
2018-12-22T18:23:52.867Z,1.40
2018-12-22T18:26:15.139Z,1.23
2018-12-22T18:28:37.399Z,1.27
2018-12-22T18:30:59.695Z,1.10
2018-12-22T18:33:21.952Z,1.20
2018-12-22T18:35:44.199Z,1.30
2018-12-22T18:38:06.459Z,1.10
2018-12-22T18:40:28.715Z,1.20
2018-12-22T18:42:51.044Z,1.27
2018-12-22T18:45:13.324Z,1.10
2018-12-22T18:47:35.611Z,1.00
2018-12-22T18:49:57.877Z,1.00
2018-12-22T18:52:20.151Z,1.00
2018-12-22T18:54:42.431Z,1.07
2018-12-22T18:57:04.712Z,1.23
2018-12-22T18:59:26.957Z,1.13
2018-12-22T19:01:49.205Z,0.90
2018-12-22T19:04:11.455Z,1.10
2018-12-22T19:06:33.714Z,1.10
2018-12-22T19:08:58.556Z,0.93
2018-12-22T19:11:21.072Z,1.30
2018-12-22T19:13:43.321Z,1.20
2018-12-22T19:16:05.599Z,1.47
2018-12-22T19:18:27.802Z,1.83
2018-12-22T19:20:51.772Z,2.23
2018-12-22T19:23:14.026Z,2.13
2018-12-22T19:25:36.291Z,2.30
2018-12-22T19:27:58.516Z,2.27
2018-12-22T19:30:20.772Z,2.50
2018-12-22T19:32:43.022Z,2.20
2018-12-22T19:35:05.299Z,2.10
2018-12-22T19:37:27.538Z,2.50
2018-12-22T19:39:49.806Z,2.07
2018-12-22T19:42:12.065Z,2.00
2018-12-22T19:44:34.319Z,2.47
2018-12-22T19:46:56.564Z,2.43
2018-12-22T19:49:18.844Z,1.97
2018-12-22T19:51:41.064Z,1.70
2018-12-22T19:54:03.295Z,2.10
2018-12-22T19:56:25.531Z,2.03
2018-12-22T19:58:47.808Z,1.40
2018-12-22T20:01:10.051Z,1.60
2018-12-22T20:03:32.298Z,1.63
2018-12-22T20:07:19.169Z,1.80
2018-12-22T20:09:41.423Z,2.20
2018-12-22T20:12:03.673Z,2.43
2018-12-22T20:14:25.905Z,1.70
2018-12-22T20:16:48.199Z,1.47
2018-12-22T20:19:10.408Z,1.60
2018-12-22T20:21:32.670Z,1.87
2018-12-22T20:23:54.928Z,2.00
2018-12-22T20:26:17.183Z,2.40
2018-12-22T20:28:39.417Z,1.90
2018-12-22T20:31:01.711Z,2.03
2018-12-22T20:33:23.988Z,1.97
2018-12-22T20:35:46.207Z,2.50
2018-12-22T20:38:08.447Z,2.00
2018-12-22T20:40:30.709Z,2.23
2018-12-22T20:42:52.943Z,2.00
2018-12-22T20:45:15.254Z,2.03
2018-12-22T20:47:37.515Z,1.83
2018-12-22T20:49:59.771Z,2.03
2018-12-22T20:52:22.044Z,2.07
2018-12-22T20:54:44.287Z,2.10
2018-12-22T20:57:06.503Z,1.83
2018-12-22T20:59:28.744Z,1.50
2018-12-22T21:01:50.972Z,1.80
2018-12-22T21:04:19.855Z,1.73
2018-12-22T21:06:35.500Z,1.80
2018-12-22T21:08:57.735Z,1.80
2018-12-22T21:11:19.997Z,1.90
2018-12-22T21:13:42.262Z,1.80
2018-12-22T21:16:04.630Z,1.67
2018-12-22T21:18:26.886Z,1.90
2018-12-22T21:20:49.162Z,2.30
2018-12-22T21:23:11.435Z,2.00
2018-12-22T21:25:33.647Z,1.90
2018-12-22T21:27:55.884Z,1.87
2018-12-22T21:30:18.104Z,2.30
2018-12-22T21:32:40.351Z,1.73
2018-12-22T21:35:02.640Z,1.87
2018-12-22T21:37:24.883Z,1.80
2018-12-22T21:39:47.201Z,1.77
2018-12-22T21:42:09.475Z,1.90
2018-12-22T21:44:31.742Z,1.60
2018-12-22T21:46:53.980Z,1.80
2018-12-22T21:49:16.233Z,1.53
2018-12-22T21:51:38.492Z,1.70
2018-12-22T21:54:00.728Z,1.50
2018-12-22T21:56:22.994Z,2.00
2018-12-22T21:58:45.261Z,1.70
2018-12-22T22:01:07.496Z,1.80
2018-12-22T22:03:29.763Z,1.60
2018-12-22T22:05:52.000Z,1.53
2018-12-22T22:08:14.267Z,1.63
2018-12-22T22:10:36.533Z,1.93
2018-12-22T22:12:58.768Z,2.10
2018-12-22T22:15:21.020Z,1.30
2018-12-22T22:17:43.257Z,1.30
2018-12-22T22:20:05.638Z,1.40
2018-12-22T22:22:27.883Z,1.37
2018-12-22T22:24:50.116Z,1.50
2018-12-22T22:27:12.343Z,1.60
2018-12-22T22:29:34.556Z,1.23
2018-12-22T22:31:56.820Z,1.87
2018-12-22T22:34:19.103Z,1.60
2018-12-22T22:36:41.398Z,1.77
2018-12-22T22:39:04.369Z,1.50
2018-12-22T22:41:26.609Z,1.33
2018-12-22T22:43:48.815Z,1.67
2018-12-22T22:46:11.051Z,1.53
2018-12-22T22:48:33.322Z,1.73
2018-12-22T22:50:55.594Z,1.60
2018-12-22T22:53:17.872Z,1.50
2018-12-22T22:55:40.129Z,1.70
2018-12-22T22:58:02.403Z,1.67
2018-12-22T23:00:29.317Z,1.80
2018-12-22T23:02:51.606Z,2.20
2018-12-22T23:05:13.893Z,1.93
2018-12-22T23:07:36.124Z,1.40
2018-12-22T23:09:58.357Z,1.77
2018-12-22T23:12:20.597Z,1.37
2018-12-22T23:14:42.827Z,1.50
2018-12-22T23:17:05.060Z,1.57
2018-12-22T23:19:27.329Z,1.60
2018-12-22T23:21:49.563Z,1.47
2018-12-22T23:24:11.798Z,1.30
2018-12-22T23:26:34.072Z,1.60
2018-12-22T23:28:56.374Z,1.43
2018-12-22T23:31:18.682Z,2.10
2018-12-22T23:33:41.040Z,1.47
2018-12-22T23:36:03.363Z,1.10
2018-12-22T23:38:25.620Z,1.40
2018-12-22T23:40:47.946Z,1.17
2018-12-22T23:43:10.258Z,1.30
2018-12-22T23:45:32.735Z,1.63
2018-12-22T23:47:54.991Z,1.50
2018-12-22T23:50:17.227Z,1.70
2018-12-22T23:52:39.512Z,1.57
2018-12-22T23:55:01.739Z,1.50
2018-12-22T23:57:24.065Z,1.30
2018-12-22T23:59:46.278Z,1.67
